createdAt,value
2022-10-05T00:01:05.756Z,17.70
2022-10-05T00:03:40.463Z,17.60
2022-10-05T00:06:10.757Z,17.60
2022-10-05T00:08:37.780Z,17.60
2022-10-05T00:11:08.175Z,17.60
2022-10-05T00:13:35.713Z,17.60
2022-10-05T00:16:11.755Z,17.60
2022-10-05T00:18:39.491Z,17.60
2022-10-05T00:21:26.995Z,17.50
2022-10-05T00:23:57.615Z,17.60
2022-10-05T00:26:26.911Z,17.60
2022-10-05T00:28:54.770Z,17.60
2022-10-05T00:31:27.022Z,17.60
2022-10-05T00:33:55.593Z,17.60
2022-10-05T00:36:22.898Z,17.70
2022-10-05T00:38:49.915Z,17.70
2022-10-05T00:41:19.575Z,17.70
2022-10-05T00:44:11.387Z,17.70
2022-10-05T00:46:53.695Z,17.80
2022-10-05T00:49:53.318Z,17.80
2022-10-05T00:52:38.806Z,17.80
2022-10-05T00:55:24.143Z,17.70
2022-10-05T00:58:02.916Z,17.70
2022-10-05T01:00:33.197Z,17.70
2022-10-05T01:03:26.166Z,17.70
2022-10-05T01:06:22.670Z,17.70
2022-10-05T01:08:49.577Z,17.70
2022-10-05T01:11:46.961Z,17.70
2022-10-05T01:14:32.471Z,17.70
2022-10-05T01:17:13.712Z,17.70
2022-10-05T01:19:43.418Z,17.70
2022-10-05T01:22:16.120Z,17.70
2022-10-05T01:25:02.792Z,17.60
2022-10-05T01:27:38.627Z,17.70
2022-10-05T01:30:08.469Z,17.70
2022-10-05T01:32:44.579Z,17.60
2022-10-05T01:35:49.142Z,17.70
2022-10-05T01:38:21.760Z,17.70
2022-10-05T01:41:12.228Z,17.60
2022-10-05T01:43:54.096Z,17.60
2022-10-05T01:46:38.982Z,17.70
2022-10-05T01:49:15.020Z,17.60
2022-10-05T01:51:47.739Z,17.70
2022-10-05T01:54:44.316Z,17.60
2022-10-05T01:57:32.921Z,17.70
2022-10-05T02:00:14.940Z,17.60
2022-10-05T02:03:03.091Z,17.70
2022-10-05T02:05:44.488Z,17.60
2022-10-05T02:08:22.568Z,17.60
2022-10-05T02:11:00.079Z,17.60
2022-10-05T02:13:35.729Z,17.60
2022-10-05T02:16:10.396Z,17.60
2022-10-05T02:18:44.137Z,17.60
2022-10-05T02:21:11.021Z,17.60
2022-10-05T02:23:39.548Z,17.60
2022-10-05T02:26:06.847Z,17.50
2022-10-05T02:28:37.404Z,17.50
2022-10-05T02:31:15.849Z,17.50
2022-10-05T02:33:42.707Z,17.50
2022-10-05T02:36:20.896Z,17.50
2022-10-05T02:38:48.927Z,17.50
2022-10-05T02:41:21.940Z,17.50
2022-10-05T02:44:04.061Z,17.50
2022-10-05T02:47:00.339Z,17.50
2022-10-05T02:49:38.144Z,17.50
2022-10-05T02:52:08.070Z,17.50
2022-10-05T02:54:42.670Z,17.50
2022-10-05T02:57:12.900Z,17.50
2022-10-05T03:00:02.112Z,17.40
2022-10-05T03:02:32.396Z,17.40
2022-10-05T03:05:09.470Z,17.40
2022-10-05T03:07:41.804Z,17.40
2022-10-05T03:10:20.793Z,17.30
2022-10-05T03:12:52.653Z,17.30
2022-10-05T03:15:27.938Z,17.30
2022-10-05T03:17:58.667Z,17.30
2022-10-05T03:20:28.661Z,17.20
2022-10-05T03:22:58.456Z,17.20
2022-10-05T03:25:34.717Z,17.20
2022-10-05T03:28:12.354Z,17.20
2022-10-05T03:30:51.634Z,17.20
2022-10-05T03:33:22.136Z,17.20
2022-10-05T03:35:48.987Z,17.20
2022-10-05T03:38:20.985Z,17.30
2022-10-05T03:40:55.856Z,17.30
2022-10-05T03:43:41.424Z,17.30
2022-10-05T03:46:10.562Z,17.30
2022-10-05T03:48:43.791Z,17.30
2022-10-05T03:51:34.912Z,17.30
2022-10-05T03:54:28.184Z,17.30
2022-10-05T03:57:00.835Z,17.20
2022-10-05T03:59:44.876Z,17.20
2022-10-05T04:02:24.553Z,17.20
2022-10-05T04:05:02.326Z,17.20
2022-10-05T04:07:33.268Z,17.20
2022-10-05T04:10:00.620Z,17.20
2022-10-05T04:12:30.394Z,17.20
2022-10-05T04:14:59.376Z,17.20
2022-10-05T04:17:32.604Z,17.10
2022-10-05T04:20:06.150Z,17.10
2022-10-05T04:22:33.240Z,17.10
2022-10-05T04:25:13.603Z,17.10
2022-10-05T04:27:43.294Z,17.10
2022-10-05T04:30:12.476Z,17.10
2022-10-05T04:32:44.521Z,17.10
2022-10-05T04:35:33.677Z,17.10
2022-10-05T04:38:07.415Z,17.10
2022-10-05T04:40:40.761Z,17.10
2022-10-05T04:43:12.709Z,17.10
2022-10-05T04:46:06.943Z,17.10
2022-10-05T04:48:41.032Z,17.10
2022-10-05T04:51:11.259Z,17.00
2022-10-05T04:53:58.990Z,17.10
2022-10-05T04:56:35.903Z,17.00
2022-10-05T04:59:23.466Z,17.00
2022-10-05T05:01:59.131Z,17.00
2022-10-05T05:04:38.240Z,17.00
2022-10-05T05:07:06.403Z,17.00
2022-10-05T05:09:53.237Z,17.00
2022-10-05T05:12:32.066Z,16.90
2022-10-05T05:15:14.523Z,16.90
2022-10-05T05:17:44.195Z,16.90
2022-10-05T05:20:17.132Z,17.00
2022-10-05T05:23:01.909Z,17.00
2022-10-05T05:25:30.193Z,17.00
2022-10-05T05:28:03.745Z,17.00
2022-10-05T05:30:37.491Z,17.00
2022-10-05T05:33:04.466Z,17.00
2022-10-05T05:35:40.912Z,17.00
2022-10-05T05:38:07.883Z,17.00
2022-10-05T05:40:36.390Z,17.10
2022-10-05T05:43:03.679Z,17.10
2022-10-05T05:45:42.088Z,17.10
2022-10-05T05:48:30.269Z,17.10
2022-10-05T05:51:03.599Z,17.10
2022-10-05T05:53:35.452Z,17.10
2022-10-05T05:56:06.182Z,17.20
2022-10-05T05:58:35.507Z,17.20
2022-10-05T06:01:25.075Z,17.20
2022-10-05T06:04:00.690Z,17.30
2022-10-05T06:06:32.558Z,17.30
2022-10-05T06:09:05.096Z,17.40
2022-10-05T06:11:57.088Z,17.40
2022-10-05T06:14:24.740Z,17.40
2022-10-05T06:17:21.838Z,17.50
2022-10-05T06:19:50.108Z,17.50
2022-10-05T06:22:30.678Z,17.50
2022-10-05T06:24:57.839Z,17.50
2022-10-05T06:27:26.013Z,17.50
2022-10-05T06:30:03.504Z,17.50
2022-10-05T06:32:38.489Z,17.50
2022-10-05T06:35:05.702Z,17.50
2022-10-05T06:37:46.917Z,17.50
2022-10-05T06:40:28.455Z,17.50
2022-10-05T06:43:10.638Z,17.50
2022-10-05T06:45:59.347Z,17.50
2022-10-05T06:49:04.632Z,17.60
2022-10-05T06:51:52.749Z,17.50
2022-10-05T06:54:49.289Z,17.60
2022-10-05T06:57:30.758Z,17.60
2022-10-05T06:59:58.206Z,17.60
2022-10-05T07:02:45.685Z,17.60
2022-10-05T07:05:16.896Z,17.70
2022-10-05T07:07:49.860Z,17.70
2022-10-05T07:10:30.665Z,17.70
2022-10-05T07:13:18.541Z,17.80
2022-10-05T07:16:03.658Z,17.80
2022-10-05T07:18:46.799Z,17.80
2022-10-05T07:21:26.896Z,17.90
2022-10-05T07:24:03.053Z,17.90
2022-10-05T07:26:30.229Z,18.00
2022-10-05T07:29:16.039Z,18.10
2022-10-05T07:31:43.611Z,18.10
2022-10-05T07:34:17.639Z,18.30
2022-10-05T07:37:08.263Z,18.40
2022-10-05T07:39:59.213Z,18.40
2022-10-05T07:42:48.962Z,18.50
2022-10-05T07:45:33.750Z,18.60
2022-10-05T07:48:11.677Z,18.70
2022-10-05T07:50:41.731Z,18.70
2022-10-05T07:53:41.466Z,18.80
2022-10-05T07:56:32.454Z,18.90
2022-10-05T07:59:04.239Z,19.00
2022-10-05T08:01:34.832Z,19.10
2022-10-05T08:04:05.018Z,19.20
2022-10-05T08:06:31.956Z,19.30
2022-10-05T08:09:07.119Z,19.30
2022-10-05T08:11:38.566Z,19.40
2022-10-05T08:14:20.428Z,19.50
2022-10-05T08:16:48.641Z,19.60
2022-10-05T08:19:21.643Z,19.60
2022-10-05T08:21:54.228Z,19.80
2022-10-05T08:24:21.001Z,20.10
2022-10-05T08:27:08.063Z,20.50
2022-10-05T08:29:39.000Z,20.90
2022-10-05T08:32:11.880Z,21.50
2022-10-05T08:34:47.852Z,22.60
2022-10-05T08:37:22.057Z,23.30
2022-10-05T08:40:07.695Z,23.60
2022-10-05T08:42:53.131Z,23.60
2022-10-05T08:45:42.742Z,23.70
2022-10-05T08:48:09.566Z,23.70
2022-10-05T08:50:42.450Z,23.70
2022-10-05T08:53:21.078Z,23.90
2022-10-05T08:56:06.606Z,24.70
2022-10-05T08:58:51.928Z,25.20
2022-10-05T09:01:18.783Z,25.40
2022-10-05T09:03:48.680Z,25.50
2022-10-05T09:06:21.824Z,25.60
2022-10-05T09:08:48.669Z,25.50
2022-10-05T09:11:21.271Z,25.20
2022-10-05T09:14:06.765Z,24.80
2022-10-05T09:16:52.875Z,24.60
2022-10-05T09:19:37.813Z,24.50
2022-10-05T09:22:05.086Z,24.60
2022-10-05T09:24:38.105Z,25.20
2022-10-05T09:27:10.719Z,25.50
2022-10-05T09:30:09.805Z,25.60
2022-10-05T09:32:51.799Z,25.30
2022-10-05T09:35:37.347Z,25.10
2022-10-05T09:38:17.604Z,24.80
2022-10-05T09:40:47.713Z,24.70
2022-10-05T09:43:45.724Z,24.40
2022-10-05T09:46:21.859Z,24.30
2022-10-05T09:49:01.241Z,24.10
2022-10-05T09:51:42.651Z,23.90
2022-10-05T09:54:18.355Z,23.90
2022-10-05T09:56:45.410Z,23.70
2022-10-05T09:59:16.079Z,23.60
2022-10-05T10:02:01.166Z,23.50
2022-10-05T10:04:44.722Z,23.20
2022-10-05T10:07:30.400Z,23.20
2022-10-05T10:09:57.385Z,23.30
2022-10-05T10:12:41.420Z,23.30
2022-10-05T10:15:27.112Z,23.30
2022-10-05T10:18:13.103Z,23.30
2022-10-05T10:20:58.639Z,23.20
2022-10-05T10:23:44.279Z,23.10
2022-10-05T10:26:16.965Z,22.90
2022-10-05T10:29:02.135Z,22.80
2022-10-05T10:31:45.855Z,22.60
2022-10-05T10:34:44.502Z,22.50
2022-10-05T10:37:50.140Z,22.40
2022-10-05T10:40:35.430Z,22.40
2022-10-05T10:43:22.307Z,22.40
2022-10-05T10:45:49.178Z,22.40
2022-10-05T10:48:18.755Z,22.30
2022-10-05T10:50:57.712Z,22.20
2022-10-05T10:53:27.722Z,22.20
2022-10-05T10:56:12.611Z,22.20
2022-10-05T10:58:50.567Z,22.20
2022-10-05T11:01:23.483Z,22.20
2022-10-05T11:03:50.317Z,22.10
2022-10-05T11:06:20.015Z,22.10
2022-10-05T11:09:05.543Z,22.10
2022-10-05T11:11:36.259Z,22.10
2022-10-05T11:14:42.379Z,21.90
2022-10-05T11:17:25.077Z,21.80
2022-10-05T11:20:09.289Z,21.80
2022-10-05T11:22:54.643Z,21.90
2022-10-05T11:25:21.431Z,21.90
2022-10-05T11:27:51.436Z,21.90
2022-10-05T11:30:30.931Z,21.90
2022-10-05T11:33:30.058Z,22.00
2022-10-05T11:36:12.188Z,22.00
2022-10-05T11:38:39.796Z,22.10
2022-10-05T11:41:09.655Z,22.20
2022-10-05T11:43:52.796Z,22.30
2022-10-05T11:46:27.737Z,22.50
2022-10-05T11:49:17.972Z,22.70
2022-10-05T11:51:53.448Z,22.90
2022-10-05T11:54:58.588Z,23.00
2022-10-05T11:57:42.975Z,23.10
2022-10-05T12:00:12.915Z,23.40
2022-10-05T12:02:42.798Z,23.90
2022-10-05T12:05:33.772Z,24.30
2022-10-05T12:08:00.627Z,25.00
2022-10-05T12:10:43.026Z,25.30
2022-10-05T12:13:28.658Z,25.40
2022-10-05T12:15:58.318Z,25.60
2022-10-05T12:18:39.182Z,25.60
2022-10-05T12:21:11.362Z,25.50
2022-10-05T12:23:45.393Z,25.70
2022-10-05T12:26:19.540Z,26.10
2022-10-05T12:28:50.017Z,26.40
2022-10-05T12:31:16.900Z,26.60
2022-10-05T12:33:46.902Z,26.80
2022-10-05T12:36:16.755Z,27.30
2022-10-05T12:39:05.315Z,27.70
2022-10-05T12:41:36.550Z,27.60
2022-10-05T12:44:16.600Z,27.40
2022-10-05T12:46:56.447Z,27.40
2022-10-05T12:49:42.139Z,27.60
2022-10-05T12:52:28.335Z,27.70
2022-10-05T12:54:59.900Z,27.70
2022-10-05T12:57:32.767Z,27.70
2022-10-05T13:00:02.449Z,27.70
2022-10-05T13:02:35.498Z,27.70
2022-10-05T13:05:05.081Z,27.70
2022-10-05T13:07:31.899Z,27.70
2022-10-05T13:10:11.022Z,27.60
2022-10-05T13:12:37.875Z,27.40
2022-10-05T13:15:04.664Z,27.00
2022-10-05T13:17:37.555Z,26.60
2022-10-05T13:20:28.112Z,26.10
2022-10-05T13:23:13.947Z,25.80
2022-10-05T13:25:44.563Z,25.50
2022-10-05T13:28:16.700Z,25.20
2022-10-05T13:30:49.995Z,24.90
2022-10-05T13:33:24.615Z,24.60
2022-10-05T13:35:52.273Z,24.30
2022-10-05T13:38:42.071Z,24.20
2022-10-05T13:41:09.088Z,24.30
2022-10-05T13:43:39.550Z,24.40
2022-10-05T13:46:09.355Z,24.40
2022-10-05T13:48:49.473Z,24.30
2022-10-05T13:51:22.322Z,24.30
2022-10-05T13:53:49.175Z,24.40
2022-10-05T13:56:16.016Z,24.30
2022-10-05T13:58:45.623Z,24.10
2022-10-05T14:01:29.895Z,24.00
2022-10-05T14:04:24.624Z,24.00
2022-10-05T14:06:54.461Z,24.00
2022-10-05T14:09:28.857Z,24.00
2022-10-05T14:12:04.448Z,24.00
2022-10-05T14:14:32.207Z,24.00
2022-10-05T14:17:00.253Z,23.90
2022-10-05T14:19:30.867Z,23.90
2022-10-05T14:22:11.888Z,23.90
2022-10-05T14:24:47.172Z,23.90
2022-10-05T14:27:19.869Z,23.80
2022-10-05T14:29:54.470Z,23.70
2022-10-05T14:32:25.131Z,23.60
2022-10-05T14:34:55.197Z,23.60
2022-10-05T14:37:24.746Z,23.60
2022-10-05T14:39:52.818Z,23.60
2022-10-05T14:42:20.622Z,23.70
2022-10-05T14:44:58.988Z,23.80
2022-10-05T14:47:27.364Z,23.90
2022-10-05T14:50:13.963Z,24.00
2022-10-05T14:52:42.957Z,24.00
2022-10-05T14:55:29.062Z,24.10
2022-10-05T14:57:59.612Z,24.10
2022-10-05T15:00:26.987Z,24.10
2022-10-05T15:03:32.398Z,24.30
2022-10-05T15:06:01.545Z,24.20
2022-10-05T15:08:38.994Z,24.30
2022-10-05T15:11:11.681Z,24.50
2022-10-05T15:13:40.055Z,24.60
2022-10-05T15:16:07.380Z,24.70
2022-10-05T15:18:41.752Z,24.80
2022-10-05T15:21:24.843Z,24.80
2022-10-05T15:23:57.549Z,24.90
2022-10-05T15:26:27.430Z,24.80
2022-10-05T15:28:54.453Z,24.60
2022-10-05T15:31:27.396Z,24.30
2022-10-05T15:34:03.048Z,24.00
2022-10-05T15:36:35.559Z,23.70
2022-10-05T15:39:02.633Z,23.50
2022-10-05T15:41:40.394Z,23.20
2022-10-05T15:44:15.679Z,23.00
2022-10-05T15:46:49.563Z,22.90
2022-10-05T15:49:22.328Z,22.70
2022-10-05T15:52:17.671Z,22.60
2022-10-05T15:54:59.699Z,22.40
2022-10-05T15:57:41.809Z,22.20
2022-10-05T16:00:19.443Z,22.10
2022-10-05T16:02:54.432Z,22.00
2022-10-05T16:05:47.630Z,21.90
2022-10-05T16:08:55.948Z,21.70
2022-10-05T16:11:30.061Z,21.60
2022-10-05T16:14:03.455Z,21.40
2022-10-05T16:16:35.639Z,21.30
2022-10-05T16:19:12.551Z,21.10
2022-10-05T16:21:45.912Z,21.00
2022-10-05T16:24:14.851Z,20.80
2022-10-05T16:26:53.739Z,20.70
2022-10-05T16:29:32.964Z,20.50
2022-10-05T16:31:59.879Z,20.40
2022-10-05T16:34:41.700Z,20.30
2022-10-05T16:37:11.324Z,20.10
2022-10-05T16:39:38.118Z,20.00
2022-10-05T16:42:29.597Z,19.80
2022-10-05T16:45:01.129Z,19.70
2022-10-05T16:47:30.995Z,19.60
2022-10-05T16:49:57.786Z,19.40
2022-10-05T16:52:25.097Z,19.30
2022-10-05T16:54:57.440Z,19.20
2022-10-05T16:57:30.016Z,19.10
2022-10-05T17:00:04.310Z,19.00
2022-10-05T17:02:46.547Z,18.90
2022-10-05T17:05:22.298Z,18.90
2022-10-05T17:08:08.265Z,18.80
2022-10-05T17:10:42.043Z,18.80
2022-10-05T17:13:28.442Z,18.80
2022-10-05T17:16:07.329Z,18.80
2022-10-05T17:18:49.462Z,18.80
2022-10-05T17:21:34.846Z,18.80
2022-10-05T17:24:10.848Z,18.80
2022-10-05T17:26:40.478Z,18.80
2022-10-05T17:29:24.264Z,18.80
2022-10-05T17:32:00.190Z,18.80
2022-10-05T17:34:30.677Z,18.80
2022-10-05T17:36:59.783Z,18.90
2022-10-05T17:39:45.183Z,18.90
2022-10-05T17:42:30.209Z,18.80
2022-10-05T17:45:07.481Z,18.90
2022-10-05T17:47:52.990Z,18.80
2022-10-05T17:50:55.531Z,18.90
2022-10-05T17:53:53.078Z,18.80
2022-10-05T17:56:20.567Z,18.70
2022-10-05T17:58:47.360Z,18.60
2022-10-05T18:01:24.632Z,18.60
2022-10-05T18:03:51.741Z,18.50
2022-10-05T18:06:35.431Z,18.40
2022-10-05T18:09:17.005Z,18.30
2022-10-05T18:11:45.046Z,18.20
2022-10-05T18:14:24.848Z,18.10
2022-10-05T18:17:02.322Z,18.10
2022-10-05T18:19:33.415Z,18.00
2022-10-05T18:22:03.533Z,17.90
2022-10-05T18:24:39.365Z,17.90
2022-10-05T18:27:18.126Z,17.80
2022-10-05T18:30:08.814Z,17.80
2022-10-05T18:32:35.648Z,17.70
2022-10-05T18:35:21.056Z,17.70
2022-10-05T18:37:54.540Z,17.70
2022-10-05T18:40:21.432Z,17.60
2022-10-05T18:43:18.171Z,17.60
2022-10-05T18:46:21.886Z,17.60
2022-10-05T18:49:03.733Z,17.50
2022-10-05T18:51:52.073Z,17.50
2022-10-05T18:54:27.749Z,17.50
2022-10-05T18:56:54.748Z,17.40
2022-10-05T18:59:24.913Z,17.40
2022-10-05T19:01:52.293Z,17.40
2022-10-05T19:04:36.967Z,17.30
2022-10-05T19:07:07.505Z,17.30
2022-10-05T19:09:52.890Z,17.30
2022-10-05T19:12:27.112Z,17.20
2022-10-05T19:14:54.157Z,17.20
2022-10-05T19:17:21.039Z,17.20
2022-10-05T19:19:58.621Z,17.20
2022-10-05T19:22:37.438Z,17.10
2022-10-05T19:25:13.572Z,17.10
2022-10-05T19:27:55.484Z,17.10
2022-10-05T19:30:45.591Z,17.10
2022-10-05T19:33:15.304Z,17.10
2022-10-05T19:35:42.075Z,17.10
2022-10-05T19:38:14.488Z,17.00
2022-10-05T19:41:08.585Z,17.00
2022-10-05T19:43:42.191Z,17.00
2022-10-05T19:46:09.022Z,16.90
2022-10-05T19:48:40.603Z,16.90
2022-10-05T19:51:17.968Z,16.90
2022-10-05T19:53:50.004Z,16.90
2022-10-05T19:56:20.163Z,16.90
2022-10-05T19:58:47.538Z,16.90
2022-10-05T20:01:25.992Z,16.80
2022-10-05T20:03:53.548Z,16.80
2022-10-05T20:06:22.028Z,16.80
2022-10-05T20:08:50.150Z,16.80
2022-10-05T20:11:21.652Z,16.80
2022-10-05T20:13:48.575Z,16.80
2022-10-05T20:16:33.848Z,16.70
2022-10-05T20:19:20.231Z,16.80
2022-10-05T20:21:51.064Z,16.70
2022-10-05T20:24:27.641Z,16.70
2022-10-05T20:27:02.175Z,16.70
2022-10-05T20:29:29.721Z,16.60
2022-10-05T20:31:56.933Z,16.60
2022-10-05T20:34:24.125Z,16.60
2022-10-05T20:36:51.518Z,16.60
2022-10-05T20:39:18.866Z,16.60
2022-10-05T20:41:45.765Z,16.60
2022-10-05T20:44:13.157Z,16.50
2022-10-05T20:46:43.014Z,16.50
2022-10-05T20:49:12.815Z,16.50
2022-10-05T20:51:40.249Z,16.50
2022-10-05T20:54:07.519Z,16.50
2022-10-05T20:56:34.475Z,16.50
2022-10-05T20:59:01.280Z,16.50
2022-10-05T21:01:28.960Z,16.50
2022-10-05T21:03:55.930Z,16.50
2022-10-05T21:06:22.811Z,16.50
2022-10-05T21:08:51.390Z,16.50
2022-10-05T21:11:18.315Z,16.50
2022-10-05T21:13:45.459Z,16.50
2022-10-05T21:16:13.488Z,16.40
2022-10-05T21:18:40.577Z,16.40
2022-10-05T21:21:07.466Z,16.40
2022-10-05T21:23:34.346Z,16.40
2022-10-05T21:26:01.637Z,16.40
2022-10-05T21:28:28.984Z,16.40
2022-10-05T21:30:56.042Z,16.30
2022-10-05T21:33:22.838Z,16.30
2022-10-05T21:35:49.777Z,16.20
2022-10-05T21:38:16.728Z,16.20
2022-10-05T21:40:45.446Z,16.20
2022-10-05T21:43:13.431Z,16.20
2022-10-05T21:45:40.440Z,16.10
2022-10-05T21:48:07.479Z,16.10
2022-10-05T21:50:34.946Z,16.10
2022-10-05T21:53:03.536Z,16.10
2022-10-05T21:55:31.881Z,16.10
2022-10-05T21:57:59.055Z,16.10
2022-10-05T22:00:25.863Z,16.10
2022-10-05T22:02:52.695Z,16.10
2022-10-05T22:05:19.652Z,16.10
2022-10-05T22:07:46.562Z,16.00
2022-10-05T22:10:13.442Z,16.00
2022-10-05T22:12:42.629Z,16.00
2022-10-05T22:15:09.633Z,16.10
2022-10-05T22:17:36.470Z,16.00
2022-10-05T22:20:03.446Z,16.10
2022-10-05T22:22:30.351Z,16.00
2022-10-05T22:24:57.153Z,16.10
2022-10-05T22:27:25.503Z,16.10
2022-10-05T22:29:52.615Z,16.10
2022-10-05T22:32:19.492Z,16.10
2022-10-05T22:34:46.443Z,16.10
2022-10-05T22:37:13.824Z,16.10
2022-10-05T22:39:40.648Z,16.10
2022-10-05T22:42:07.719Z,16.00
2022-10-05T22:44:34.884Z,16.00
2022-10-05T22:47:03.038Z,16.00
2022-10-05T22:49:29.828Z,16.00
2022-10-05T22:51:56.695Z,15.90
2022-10-05T22:54:27.421Z,15.90
2022-10-05T22:56:56.191Z,15.90
2022-10-05T22:59:23.015Z,15.90
2022-10-05T23:01:49.851Z,15.90
2022-10-05T23:04:16.781Z,15.90
2022-10-05T23:06:43.672Z,15.90
2022-10-05T23:09:10.529Z,15.90
2022-10-05T23:11:37.315Z,15.90
2022-10-05T23:14:04.163Z,15.80
2022-10-05T23:16:31.089Z,15.80
2022-10-05T23:18:59.159Z,15.80
2022-10-05T23:21:28.162Z,15.80
2022-10-05T23:23:54.987Z,15.80
2022-10-05T23:26:23.571Z,15.80
2022-10-05T23:28:50.501Z,15.80
2022-10-05T23:31:19.093Z,15.80
2022-10-05T23:33:45.928Z,15.80
2022-10-05T23:36:14.143Z,15.70
2022-10-05T23:38:40.997Z,15.70
2022-10-05T23:41:08.815Z,15.70
2022-10-05T23:43:35.817Z,15.70
2022-10-05T23:46:04.013Z,15.80
2022-10-05T23:48:31.514Z,15.80
2022-10-05T23:50:58.775Z,15.80
2022-10-05T23:53:25.770Z,15.80
2022-10-05T23:55:53.229Z,15.70
2022-10-05T23:58:20.564Z,15.70
